Date,TemperatureHighF,TemperatureAvgF,TemperatureLowF,DewpointHighF,DewpointAvgF,DewpointLowF,HumidityHigh,HumidityAvg,HumidityLow,PressureMaxIn,PressureMinIn,WindSpeedMaxMPH,WindSpeedAvgMPH,GustSpeedMaxMPH,PrecipitationSumIn
2013-1-30,60,46,27,37,30,21,81,55,36,30.45,30.37,3,1,8,0.00
2013-1-31,64,45,27,35,28,20,79,55,31,30.39,30.26,2,0,4,0.00
2013-2-1,63,41,28,33,25,17,66,54,29,30.38,30.28,3,0,4,0.00
2013-2-2,50,39,31,33,27,23,73,63,47,30.42,30.33,3,0,4,0.00
2013-2-3,61,40,28,36,25,20,76,58,30,30.33,30.23,3,0,4,0.00
2013-2-4,64,43,27,31,24,18,70,49,25,30.28,30.13,3,0,4,0.00
2013-2-5,63,44,30,30,22,16,68,44,18,30.14,29.99,6,1,7,0.00
2013-2-6,58,39,25,28,18,13,63,44,20,30.21,30.08,3,1,5,0.00
2013-2-7,53,38,28,29,16,10,51,42,20,30.09,29.92,8,2,11,0.00
2013-2-8,37,32,27,19,17,14,65,55,46,30.02,29.91,3,1,6,0.00
2013-2-9,48,32,19,21,15,10,70,51,30,30.13,30.01,5,1,8,0.00
2013-2-10,46,32,22,23,16,12,71,54,33,30.17,30.11,4,1,6,0.00
2013-2-11,50,32,17,22,14,9,75,51,25,30.30,30.17,4,0,5,0.00
2013-2-12,56,37,21,25,19,12,70,51,28,30.39,30.30,3,0,5,0.00
2013-2-13,60,40,25,29,23,16,72,52,30,30.42,30.31,3,1,5,0.00
2013-2-14,58,41,27,31,25,19,73,54,34,30.45,30.35,5,1,8,0.00
2013-2-15,63,42,25,34,24,18,77,53,27,30.47,30.35,4,1,6,0.00
2013-2-16,56,41,25,30,21,15,67,47,29,30.39,30.12,3,0,4,0.00
2013-2-17,56,39,26,31,20,14,67,47,32,30.13,30.06,4,1,7,0.00
2013-2-18,55,38,25,23,19,15,68,49,27,30.11,29.85,5,1,7,0.00
2013-2-19,50,38,31,27,20,14,75,50,28,29.85,29.66,8,2,9,0.01
2013-2-20,50,36,27,23,17,11,67,49,29,30.02,29.79,5,1,7,0.01
2013-2-21,50,36,25,24,15,12,62,44,25,30.17,29.99,3,1,7,0.00
2013-2-22,57,42,24,27,19,13,64,43,27,30.25,30.06,5,1,11,0.00
2013-2-23,45,38,26,27,19,12,73,47,29,30.26,29.95,8,2,11,0.00
2013-2-24,49,33,18,19,12,9,71,46,24,30.34,30.25,5,1,8,0.00
2013-2-25,61,38,23,19,12,8,61,38,17,30.26,30.13,6,1,10,0.00
2013-2-26,51,35,21,19,11,2,61,38,15,30.32,30.22,4,1,5,0.00
2013-2-27,60,40,20,20,12,6,56,36,17,30.38,30.28,4,1,6,0.00
2013-2-28,67,47,31,35,25,15,57,43,27,30.50,30.37,3,1,7,0.00
2013-3-1,69,50,33,37,29,25,73,49,25,30.52,30.36,5,1,9,0.00
2013-3-2,66,51,38,34,28,25,63,44,24,30.40,30.16,5,1,7,0.00
2013-3-3,50,46,42,41,37,26,81,72,41,30.17,30.08,3,1,5,0.15
2013-3-4,60,46,33,39,32,27,82,62,34,30.18,30.07,4,1,6,0.01
2013-3-5,60,46,31,37,28,23,82,51,29,30.08,29.81,7,2,11,0.01
2013-3-6,47,40,31,31,24,18,81,54,37,30.01,29.78,10,4,15,0.04
2013-3-7,46,38,30,27,24,19,70,58,41,30.01,29.92,5,1,11,0.03
2013-3-8,48,39,31,28,25,22,74,58,38,30.04,29.90,3,1,4,0.00
2013-3-9,59,43,31,27,19,12,67,42,17,30.42,30.04,4,1,6,0.00
2013-3-10,63,43,26,22,15,12,59,36,16,30.46,30.34,4,1,7,0.00
2013-3-11,68,49,31,26,19,15,54,34,16,30.38,30.22,4,1,6,0.00
2013-3-12,73,52,35,32,25,20,62,38,17,30.30,30.21,3,1,6,0.00
2013-3-13,76,57,37,38,29,25,64,38,15,30.33,30.21,4,1,6,0.00
2013-3-14,75,56,45,34,30,26,53,38,17,30.29,30.23,6,1,8,0.00
2013-3-15,73,55,38,33,26,22,58,36,15,30.25,30.13,6,1,9,0.00
2013-3-16,72,52,38,33,24,20,58,36,15,30.18,30.05,8,2,11,0.00
2013-3-17,69,53,41,25,21,14,46,30,13,30.15,30.07,5,1,8,0.00
2013-3-18,68,50,31,29,22,19,61,37,16,30.18,30.08,6,2,8,0.00
2013-3-19,65,53,45,36,31,22,56,43,30,30.20,30.09,5,2,7,0.00
2013-3-20,61,52,45,38,33,30,62,50,34,30.10,29.93,18,4,24,0.00
2013-3-21,61,49,37,33,25,11,63,42,23,30.14,30.03,6,2,9,0.00
2013-3-22,55,39,25,17,11,5,55,33,14,30.19,30.07,5,1,7,0.00
2013-3-23,57,40,22,19,12,7,55,33,18,30.26,30.09,5,1,7,0.00
2013-3-24,68,49,31,29,21,13,60,37,22,30.19,30.04,4,1,6,0.00
2013-3-25,71,52,35,29,22,14,54,34,11,30.10,29.98,6,2,9,0.00
2013-3-26,64,52,43,34,30,20,56,42,30,30.03,29.98,6,2,9,0.00
2013-3-27,69,50,33,37,31,24,73,51,25,30.08,29.99,7,2,9,0.00
2013-3-28,61,51,40,40,34,29,67,53,32,30.22,30.07,5,1,7,0.00
2013-3-29,71,53,36,41,33,29,76,51,25,30.27,30.16,4,1,8,0.00
2013-3-30,73,57,41,39,32,-100,65,42,22,30.23,30.05,5,2,8,0.00
2013-3-31,57,51,44,43,36,31,82,57,39,30.15,30.03,5,2,6,0.16
2013-4-1,63,49,38,36,32,29,72,53,32,30.20,30.08,8,2,10,0.02
2013-4-2,67,52,35,39,33,27,75,51,28,30.24,30.13,4,1,6,0.00
2013-4-3,72,57,41,45,36,31,73,49,22,30.24,30.10,5,1,7,0.00
2013-4-4,61,53,45,43,35,29,64,51,41,30.13,30.04,5,2,10,0.01
2013-4-5,68,52,41,34,30,26,63,45,27,30.16,30.09,6,2,9,0.01
2013-4-6,64,52,45,35,30,24,53,43,30,30.18,30.10,7,2,11,0.00
2013-4-7,66,52,41,33,29,24,67,42,23,30.13,29.76,10,4,15,0.01
2013-4-8,50,41,34,31,26,21,76,55,33,30.12,29.73,4,2,8,0.02
2013-4-9,57,45,32,27,20,17,60,40,21,30.29,30.12,6,1,8,0.01
2013-4-10,75,54,33,38,28,19,59,39,19,30.35,30.11,5,2,7,0.00
2013-4-11,64,54,44,42,33,21,80,48,21,30.17,30.03,4,1,7,0.17
2013-4-12,71,55,36,35,29,24,64,40,22,30.12,29.94,5,2,7,0.02
2013-4-13,71,61,51,36,28,16,36,29,18,29.98,29.85,10,4,15,0.00
2013-4-14,69,51,37,31,24,16,50,36,24,29.97,29.80,10,3,16,0.00
2013-4-15,57,44,36,31,26,20,75,52,27,29.93,29.79,9,3,14,0.00
2013-4-16,48,38,34,27,22,18,70,54,30,30.20,29.93,5,2,8,0.02
2013-4-17,52,41,28,21,15,12,56,37,21,30.34,30.20,4,1,7,0.01
2013-4-18,64,46,29,24,18,13,53,35,18,30.38,30.30,3,1,6,0.00
2013-4-19,74,55,37,35,28,20,53,38,21,30.35,30.16,7,2,11,0.00
2013-4-20,70,55,37,33,26,21,62,35,16,30.29,30.14,5,1,7,0.00
2013-4-21,77,59,40,32,27,20,52,32,16,30.23,30.10,4,1,11,0.00
2013-4-22,73,58,42,38,28,13,63,35,17,30.26,30.11,5,1,7,0.00
2013-4-23,66,52,34,18,14,12,42,24,13,30.28,30.06,5,2,10,0.00
2013-4-24,67,53,32,21,14,9,48,23,11,30.20,30.07,9,2,13,0.00
2013-4-25,76,57,38,30,19,13,39,25,10,30.20,30.08,5,2,9,0.00
2013-4-26,80,64,45,37,30,24,52,30,13,30.33,30.21,4,1,6,0.00
2013-4-27,80,58,49,41,35,32,55,43,19,30.36,30.33,3,1,5,0.00
2013-5-3,82,74,59,35,24,16,29,16,10,30.22,30.08,4,1,7,0.00
2013-5-4,71,58,43,37,28,19,50,33,21,30.12,29.88,4,1,8,0.00
2013-5-5,69,54,44,46,38,31,68,55,33,29.95,29.83,9,1,18,0.06
2013-5-6,63,54,47,45,41,38,77,63,45,30.03,29.92,4,1,8,0.09
2013-5-7,59,50,44,44,41,38,83,71,54,30.10,30.02,5,1,8,0.54
2013-5-8,67,57,47,49,43,38,85,62,34,30.19,30.09,3,1,6,0.18
2013-5-9,76,62,46,50,42,35,78,53,24,30.28,30.17,3,1,7,0.01
2013-5-10,83,66,51,49,39,-100,71,43,21,30.33,30.25,3,1,5,0.00
2013-5-11,86,69,54,50,40,-100,63,39,16,30.34,30.24,4,2,9,0.00
2013-5-12,88,68,55,47,39,36,52,38,18,30.34,30.27,4,1,5,0.00
2013-5-15,88,64,58,38,35,33,41,35,17,30.27,30.10,5,2,5,0.00
2013-5-16,63,54,53,40,22,-100,51,45,37,30.10,30.00,4,2,10,0.00
2013-5-17,70,58,48,37,29,-100,57,40,23,30.14,30.01,7,2,11,0.00
2013-5-18,74,58,41,38,32,27,58,40,24,30.20,30.13,5,2,9,0.00
2013-5-19,70,60,49,38,32,22,56,37,17,30.29,30.21,4,1,7,0.00
2013-5-20,76,60,39,36,30,25,61,35,17,30.28,30.10,5,1,7,0.00
2013-5-21,77,64,54,36,29,19,42,27,17,30.10,29.91,7,2,13,0.00
2013-5-22,61,52,38,29,20,16,48,31,18,30.01,29.91,5,1,7,0.00
2013-5-23,63,51,37,25,22,18,49,33,21,30.09,29.93,4,1,7,0.00
2013-5-24,76,56,37,33,25,21,53,34,13,30.09,29.98,6,2,7,0.00
2013-5-25,75,60,47,33,28,23,44,30,16,30.07,30.00,5,2,7,0.00
2013-5-26,72,60,48,35,30,25,47,34,22,30.17,30.06,7,2,13,0.00
2013-5-27,67,54,41,41,35,27,62,48,28,30.17,30.02,4,1,11,0.00
2013-5-28,70,59,50,43,40,35,75,51,29,30.03,29.98,4,2,7,0.03
2013-5-29,74,62,52,41,36,32,61,40,22,30.05,29.94,6,2,9,0.02
2013-5-30,79,62,43,41,35,29,68,41,18,30.16,30.03,4,1,7,0.00
2013-5-31,80,65,46,36,30,23,57,31,13,30.26,30.16,5,1,9,0.00
2013-6-1,86,70,49,37,30,25,44,25,12,30.22,30.03,3,1,6,0.00
2013-6-2,89,73,55,45,37,33,52,30,14,30.06,29.92,6,2,9,0.00
2013-6-3,86,71,52,40,34,30,49,28,15,30.10,30.00,4,1,7,0.00
2013-6-4,89,72,55,42,33,27,49,27,11,30.14,30.05,3,1,6,0.00
2013-6-5,92,76,57,43,37,29,49,28,11,30.20,30.08,3,1,5,0.00
2013-6-6,95,79,61,48,41,35,47,28,13,30.17,30.07,7,2,7,0.00
2013-6-7,97,79,61,47,39,33,47,27,11,30.18,30.06,3,1,7,0.00
2013-6-8,96,81,63,51,44,39,47,29,15,30.17,30.05,4,1,6,0.00
2013-6-9,99,78,64,52,44,39,47,32,16,30.11,29.96,3,1,6,0.09
2013-6-10,84,68,58,54,50,41,76,55,29,30.05,29.93,8,2,12,0.06
2013-6-11,82,67,51,52,42,35,75,46,19,30.10,30.03,7,2,9,0.01
2013-6-12,84,69,53,48,36,23,59,32,13,30.12,30.02,9,2,15,0.00
2013-6-13,77,63,46,33,26,20,43,27,12,30.24,30.11,6,2,11,0.00
2013-6-14,75,62,43,34,30,27,57,32,18,30.24,30.06,6,1,8,0.00
2013-6-15,85,66,49,37,30,27,45,28,14,30.13,30.02,7,2,8,0.00
2013-6-16,84,69,52,39,32,24,38,26,17,30.22,30.13,5,2,7,0.00
2013-6-17,85,68,51,40,33,29,45,30,13,30.22,30.09,6,2,10,0.00
2013-6-18,77,64,49,39,29,25,52,28,17,30.09,29.95,9,2,12,0.00
2013-6-19,71,59,47,33,28,22,46,32,19,30.12,29.99,7,2,10,0.00
2013-6-20,73,55,43,37,31,26,53,41,23,30.14,30.04,5,1,8,0.00
2013-6-21,77,76,74,37,34,30,25,22,18,30.11,30.05,3,2,4,0.00
2013-6-22,82,75,49,40,37,31,49,26,18,30.17,30.01,5,2,7,0.00
2013-6-23,73,64,53,42,37,33,47,37,28,30.04,29.92,5,2,8,0.00
2013-6-24,64,59,53,46,42,35,64,53,44,30.03,29.89,6,1,8,0.00
2013-6-25,70,63,54,55,49,44,75,61,51,30.14,30.01,6,2,8,0.00
2013-6-26,86,72,55,54,49,45,74,48,26,30.23,30.12,7,2,11,0.00
2013-6-27,95,75,54,54,47,41,63,40,19,30.31,30.23,4,1,6,0.00
2013-6-28,99,80,63,56,48,43,59,37,15,30.31,30.14,4,1,5,0.79
2013-6-29,98,82,64,57,50,39,61,37,13,30.22,30.10,3,1,6,0.02
2013-6-30,100,81,65,55,49,41,52,35,14,30.17,30.06,6,1,10,0.00
2013-7-1,102,81,66,52,47,43,52,32,16,30.23,30.12,4,1,5,0.00
2013-7-2,102,80,68,59,52,47,60,40,17,30.28,30.13,6,1,8,0.17
2013-7-3,96,80,62,60,54,46,70,45,19,30.29,30.09,3,1,5,0.01
2013-7-4,95,81,65,59,54,50,62,41,24,30.17,29.99,5,1,8,0.00
2013-7-5,95,79,64,57,43,30,59,33,12,30.03,29.92,6,2,11,0.00
2013-7-6,92,72,58,46,39,33,47,33,13,30.02,29.95,6,2,9,0.00
2013-7-7,93,76,59,46,39,33,47,28,13,30.08,30.00,8,2,11,0.00
2013-7-8,94,75,60,47,40,31,47,31,11,30.22,30.08,6,2,7,0.00
2013-7-9,92,75,58,49,38,34,52,28,17,30.27,30.19,6,1,9,0.00
2013-7-10,92,75,57,45,37,-100,44,27,16,30.26,30.13,5,2,8,0.00
2013-7-11,89,77,68,46,37,26,42,25,15,30.13,30.05,5,2,8,0.00
2013-7-12,90,71,53,40,33,26,43,26,12,30.13,30.05,5,1,7,0.00
2013-7-13,91,74,55,37,32,23,38,24,10,30.19,30.10,3,2,11,0.00
2013-7-14,92,75,58,44,39,35,46,29,16,30.23,30.09,4,1,7,0.00
2013-7-15,94,75,61,47,42,37,44,31,15,30.14,29.97,4,2,8,0.00
2013-7-16,90,75,61,49,40,33,53,31,13,30.17,30.02,6,1,8,0.00
2013-7-17,92,71,53,39,34,27,46,29,10,30.27,30.17,3,1,5,0.00
2013-7-18,98,79,59,44,38,26,44,26,8,30.26,30.11,4,1,6,0.00
2013-7-19,101,82,63,48,41,34,44,26,10,30.19,30.05,4,1,5,0.00
2013-7-20,101,82,66,50,41,-100,42,26,11,30.12,30.00,4,1,7,0.00
2013-7-21,102,85,68,53,45,37,47,28,11,30.09,30.00,4,2,6,0.00
2013-7-22,99,84,72,53,46,39,38,28,13,30.17,30.05,5,1,11,0.00
2013-7-23,83,78,67,53,47,41,46,34,26,30.21,30.16,4,1,5,0.00
2013-7-24,94,79,62,55,51,47,61,40,25,30.21,30.12,4,1,7,0.00
2013-7-25,97,76,66,61,53,48,66,46,22,30.29,30.16,3,1,7,0.17
2013-7-26,92,77,62,60,54,47,72,48,28,30.30,30.18,4,1,6,0.01
2013-7-27,94,81,63,54,47,38,55,32,18,30.26,30.05,5,2,7,0.00
2013-7-28,93,78,63,51,44,40,50,32,18,30.11,29.98,6,2,9,0.00
2013-7-29,90,73,59,47,38,34,45,30,16,30.19,30.05,6,1,7,0.00
2013-7-30,91,75,56,48,39,34,49,29,15,30.26,30.18,5,1,8,0.00
2013-7-31,90,77,63,44,40,35,47,28,15,30.24,30.11,6,2,10,0.00
2013-8-1,84,73,63,39,30,23,34,22,12,30.16,30.11,5,2,10,0.00
2013-8-2,87,68,50,38,29,22,40,25,10,30.18,30.06,4,2,6,0.00
2013-8-3,89,72,55,40,35,31,43,27,13,30.17,30.07,3,1,5,0.00
2013-8-4,93,71,57,45,38,34,46,32,13,30.19,30.08,4,1,6,0.00
2013-8-5,93,74,56,43,36,30,44,28,11,30.20,30.08,4,1,7,0.00
2013-8-6,93,74,57,43,37,31,38,27,12,30.19,30.05,3,1,9,0.00
2013-8-7,89,75,67,42,39,35,36,27,17,30.17,30.09,5,2,9,0.00
2013-8-8,86,70,56,51,39,32,71,36,19,30.16,30.03,4,1,10,0.28
2013-8-9,83,67,53,50,44,34,76,49,19,30.11,30.02,5,1,8,0.28
2013-8-10,85,68,50,41,35,28,56,32,13,30.18,30.10,5,2,9,0.00
2013-8-11,87,70,52,41,37,31,46,31,15,30.21,30.08,3,1,7,0.00
2013-8-12,89,69,54,47,38,35,50,35,16,30.20,30.10,5,1,6,0.00
2013-8-13,92,68,54,42,34,-100,48,32,12,30.23,30.11,4,1,7,0.00
2013-8-14,94,70,56,41,32,-100,41,28,11,30.21,30.09,3,1,7,0.00
2013-8-15,93,64,57,39,18,-100,37,22,7,30.19,30.11,6,2,8,0.00
2013-8-16,92,68,51,37,27,-100,45,26,9,30.23,30.15,5,1,9,0.00
2013-8-17,94,72,58,47,36,-100,43,30,11,30.23,30.07,3,1,4,0.00
2013-8-18,96,77,60,48,42,38,47,31,15,30.20,30.09,3,1,5,0.00
2013-8-19,80,70,68,57,40,-100,51,40,33,30.23,30.14,2,1,3,0.00
2013-8-20,95,74,62,55,48,-100,58,44,21,30.19,30.05,4,1,5,0.05
2013-8-21,90,73,62,55,50,47,61,47,28,30.19,30.10,5,1,7,0.05
2013-8-22,87,73,58,55,45,38,67,40,19,30.19,30.04,8,2,19,0.00
2013-8-23,85,68,54,45,38,36,51,36,19,30.12,29.99,3,1,6,0.00
2013-8-24,84,65,51,45,35,-100,55,36,16,30.06,29.98,4,1,7,0.00
2013-8-25,82,67,51,45,40,34,57,39,21,30.12,30.05,8,2,11,0.00
2013-8-26,85,69,53,47,41,37,61,40,19,30.17,30.07,6,2,9,0.00
2013-8-27,83,63,55,47,41,37,52,45,27,30.13,30.07,2,1,3,0.00
2013-8-28,87,78,66,55,48,43,50,35,25,30.14,30.06,5,2,8,0.00
2013-8-29,89,71,54,53,42,32,65,41,13,30.24,30.14,9,1,9,0.00
2013-8-30,93,72,55,49,38,32,54,33,12,30.28,30.15,5,1,8,0.00
2013-8-31,94,75,59,49,39,-100,48,30,18,30.21,30.08,4,1,7,0.00
2013-9-1,88,75,62,51,45,36,52,35,24,30.15,30.04,3,1,5,0.00
2013-9-2,85,73,64,58,51,48,60,46,32,30.12,30.04,5,1,7,0.00
2013-9-3,88,73,59,58,51,46,70,48,26,30.15,30.08,6,1,9,0.00
2013-9-4,89,73,59,55,49,46,63,44,23,30.19,30.08,8,1,11,0.00
2013-9-5,85,71,55,50,42,36,64,38,21,30.16,30.08,7,2,11,0.00
2013-9-6,86,67,50,44,38,34,56,37,22,30.23,30.10,4,1,6,0.00
2013-9-7,89,68,54,43,36,-100,52,33,16,30.18,30.06,3,1,6,0.00
2013-9-8,90,70,54,44,37,34,50,34,16,30.17,30.04,3,1,6,0.00
2013-9-9,89,70,56,44,36,32,46,31,16,30.15,30.03,3,1,5,0.00
2013-9-10,89,67,54,41,35,31,45,32,17,30.12,30.03,3,1,4,0.00
2013-9-11,88,68,57,45,38,32,47,35,17,30.17,30.10,3,1,4,0.00
2013-9-12,85,71,59,54,46,40,59,43,29,30.16,30.07,4,1,5,0.00
2013-9-13,88,70,56,56,50,47,73,51,26,30.14,30.01,3,1,4,0.00
2013-9-14,90,70,57,53,46,-100,66,46,24,30.06,29.95,2,1,6,0.00
2013-9-15,88,73,58,47,43,36,62,36,18,30.02,29.97,6,2,9,0.00
2013-9-16,89,69,51,44,38,34,61,35,16,30.07,29.95,7,2,9,0.00
2013-9-17,79,66,54,45,35,27,58,34,15,30.08,29.88,5,2,9,0.00
2013-9-18,60,51,44,37,34,32,66,53,37,30.14,30.08,2,0,3,0.00
2013-9-19,81,58,43,38,31,27,57,39,17,30.16,30.02,3,1,6,0.00
2013-9-20,83,63,48,36,31,27,52,32,15,30.04,29.91,7,2,11,0.00
2013-9-21,65,54,48,43,35,-100,64,50,39,29.96,29.86,5,1,9,0.00
2013-9-22,71,55,41,39,36,31,69,51,26,30.12,29.95,5,1,6,0.00
2013-9-23,81,58,43,42,35,25,71,47,16,30.18,30.07,4,1,6,0.00
2013-9-24,75,63,53,39,31,22,43,30,22,30.09,29.90,8,3,12,0.00
2013-9-25,61,50,42,34,30,25,63,46,25,29.98,29.90,7,2,10,0.01
2013-9-26,55,46,36,33,29,27,71,54,36,30.15,29.97,3,1,5,0.01
2013-9-27,66,47,33,34,28,24,71,50,25,30.24,30.15,2,1,5,0.00
2013-9-28,77,56,37,39,31,-100,65,42,23,30.22,30.12,6,1,8,0.00
2013-9-29,73,63,53,38,33,29,45,34,23,30.15,30.08,7,2,13,0.00
2013-9-30,72,61,54,45,39,35,54,45,37,30.13,30.07,7,2,9,0.00
2013-10-1,71,63,52,35,34,30,48,34,22,30.11,30.05,3,1,7,0.00
2013-10-2,72,53,41,38,29,22,63,42,17,30.11,30.00,6,1,9,0.00
2013-10-3,59,47,34,29,23,20,60,40,24,30.29,30.08,5,1,6,0.00
2013-10-4,63,46,33,29,22,19,63,42,23,30.41,30.29,5,1,9,0.00
2013-10-5,71,43,30,27,21,18,63,43,17,30.47,30.34,2,0,5,0.00
2013-10-6,76,45,37,27,21,17,45,38,16,30.37,30.19,2,1,3,0.00
2013-10-7,75,54,41,30,24,19,50,34,15,30.20,30.03,3,1,3,0.00
2013-10-8,68,54,37,33,26,19,50,35,21,30.10,29.84,4,1,4,0.00
2013-10-9,51,47,42,37,32,27,74,55,43,29.91,29.77,4,1,4,0.03
2013-10-10,68,50,36,38,32,28,74,53,26,30.08,29.91,5,0,5,0.01
2013-10-11,67,52,38,39,32,28,70,49,27,30.16,30.05,2,0,2,0.00
2013-10-12,70,51,37,38,29,-100,64,45,23,30.10,29.96,9,1,9,0.00
2013-10-13,58,47,39,37,33,26,71,59,43,30.25,30.03,3,1,3,0.00
2013-10-14,64,45,32,37,28,24,73,55,30,30.32,30.22,2,0,2,0.00
2013-10-15,63,44,30,34,25,21,72,49,24,30.30,30.24,5,0,5,0.00
2013-10-16,67,46,32,33,23,16,53,43,24,30.28,30.18,2,0,2,0.00
2013-10-17,70,46,38,34,26,23,58,47,19,30.26,30.17,2,0,2,0.00
2013-10-18,73,46,36,33,24,20,52,42,21,30.30,30.19,2,0,2,0.00
2013-10-19,76,47,35,30,22,-100,57,41,17,30.30,30.19,2,0,2,0.00
2013-10-20,77,48,41,29,25,22,49,41,15,30.24,30.13,1,0,1,0.00
2013-10-21,76,51,39,29,23,19,47,35,17,30.26,30.15,4,1,4,0.00
2013-10-22,77,53,41,32,25,21,48,35,16,30.26,30.14,5,0,5,0.00
2013-10-23,77,53,41,31,24,20,44,33,16,30.20,30.09,3,0,3,0.00
2013-10-24,63,48,41,27,22,19,44,36,25,30.20,30.14,1,0,1,0.00
2013-10-25,77,53,41,27,20,16,42,29,13,30.32,30.24,3,1,4,0.00
2013-10-26,76,50,39,27,18,-100,42,31,15,30.36,30.22,3,1,4,0.00
2013-10-27,74,51,36,29,22,18,53,34,16,30.22,29.60,9,2,12,0.00
2013-10-28,49,41,36,31,28,-100,77,63,47,29.85,29.64,4,1,6,0.05
2013-10-29,41,38,37,34,32,29,81,78,63,30.12,29.85,2,0,4,0.02
2013-10-30,57,40,29,34,30,24,81,68,41,30.25,30.12,2,0,4,0.02
2013-10-31,64,44,30,37,29,24,79,60,27,30.33,30.24,2,0,4,0.02
2013-11-1,69,46,33,38,30,25,75,58,31,30.34,30.19,2,0,3,0.00
2013-11-2,67,45,31,37,28,-100,80,56,29,30.19,29.97,7,1,9,0.00
2013-11-3,52,43,38,32,22,17,57,44,29,30.13,30.01,4,1,5,0.00
2013-11-4,54,38,29,24,18,13,58,45,28,30.23,30.03,3,0,5,0.00
2013-11-5,61,38,25,24,18,13,62,46,23,30.35,30.21,2,0,3,0.00
2013-11-6,63,43,31,31,24,19,65,48,27,30.40,30.30,2,0,4,0.00
2013-11-7,70,50,41,35,25,17,62,40,15,30.32,30.15,7,1,10,0.00
2013-11-8,71,50,35,32,24,18,55,38,22,30.18,30.05,4,1,8,0.00
2013-11-9,71,46,35,33,24,-100,62,45,23,30.21,30.12,2,0,5,0.00
2013-11-10,71,46,34,32,24,19,61,44,21,30.26,30.17,2,0,3,0.00
2013-11-11,70,47,35,27,21,16,47,36,19,30.32,30.23,2,0,3,0.00
2013-11-12,66,52,44,33,26,22,44,37,26,30.40,30.31,3,0,5,0.00
2013-11-13,72,46,35,34,26,22,61,47,23,30.39,30.29,2,0,3,0.00
2013-11-14,70,49,33,35,26,22,66,45,21,30.29,29.92,7,1,10,0.00
2013-11-15,54,43,34,32,26,22,67,52,40,29.98,29.82,4,1,7,0.00
2013-11-16,62,47,32,29,23,-100,69,42,27,29.98,29.75,12,2,13,0.00
2013-11-17,66,42,29,33,24,19,70,52,26,30.16,29.98,2,0,3,0.00
2013-11-18,54,45,30,33,28,19,68,51,41,30.15,30.05,4,1,5,0.00
2013-11-19,60,50,46,38,34,30,72,55,41,30.09,29.99,5,2,6,0.00
2013-11-20,56,46,37,41,37,31,84,72,53,30.01,29.90,4,1,6,0.35
2013-11-21,37,34,32,32,24,16,82,67,49,30.32,30.01,3,1,7,0.33
2013-11-22,47,32,22,20,14,11,71,51,24,30.37,30.24,3,0,5,0.01
2013-11-23,53,32,21,23,14,-100,73,52,21,30.26,30.18,2,0,4,0.00
2013-11-24,55,32,21,24,16,11,66,53,27,30.34,30.21,2,0,3,0.00
2013-11-25,56,36,23,27,20,13,69,52,32,30.42,30.34,3,0,4,0.00
2013-11-26,53,38,27,29,23,18,72,57,37,30.37,30.21,2,0,3,0.00
2013-11-27,57,39,29,32,25,20,73,58,38,30.20,30.03,2,0,3,0.00
2013-11-28,50,38,31,32,27,23,76,64,47,30.22,30.06,2,0,3,0.00
2013-11-29,55,38,28,34,27,22,80,65,43,30.33,30.21,3,0,5,0.00
2013-11-30,58,38,28,33,25,-100,75,60,37,30.38,30.28,2,0,4,0.00
2013-12-1,57,39,27,33,26,20,76,61,38,30.43,30.31,3,0,5,0.00
2013-12-2,63,50,31,34,23,15,76,38,18,30.31,29.87,6,2,10,0.00
2013-12-3,49,33,20,34,22,12,80,66,44,29.92,29.76,10,2,13,0.00
2013-12-4,27,22,15,16,12,7,74,67,59,30.07,29.92,3,0,5,0.04
2013-12-5,30,21,14,15,10,5,71,62,50,30.10,30.03,2,0,4,0.03
2013-12-6,32,22,11,22,12,5,78,65,44,30.07,29.77,2,0,6,0.02
2013-12-7,29,24,14,24,12,-100,83,62,41,30.12,29.74,3,0,5,0.04
2013-12-8,23,11,1,10,2,-5,76,68,55,30.36,30.12,2,0,4,0.03
2013-12-9,25,11,0,11,2,-6,77,68,51,30.49,30.36,2,0,4,0.01
2013-12-10,30,15,4,15,6,-3,76,67,52,30.45,30.31,2,0,2,0.01
2013-12-11,33,19,9,18,9,1,77,66,54,30.42,30.34,2,0,4,0.01
2013-12-12,36,18,7,21,9,0,77,68,52,30.37,30.25,1,0,3,0.00
2013-12-13,42,25,13,24,16,7,82,67,46,30.47,30.25,2,0,3,0.00
2013-12-14,41,26,17,24,16,-100,80,67,50,30.56,30.47,3,0,4,0.00
2013-12-15,43,27,15,27,17,8,80,68,50,30.54,30.42,2,0,3,0.00
2013-12-16,45,28,17,28,19,10,83,67,50,30.51,30.41,2,0,4,0.00
2013-12-17,41,28,19,28,20,12,81,71,58,30.44,30.23,3,0,3,0.00
2013-12-18,46,35,25,31,25,20,84,70,45,30.23,29.80,3,0,4,0.00
2013-12-19,41,34,25,29,22,13,79,62,51,30.07,29.79,3,0,5,0.01
2013-12-20,38,26,16,20,15,9,74,62,44,30.13,30.04,2,0,3,0.01
2013-12-21,52,37,27,33,25,-100,84,66,47,30.23,30.02,3,1,6,0.00
2013-12-22,52,37,27,34,27,21,82,70,49,30.41,30.22,2,0,4,0.00
2013-12-23,54,37,27,36,27,21,83,69,49,30.46,30.39,2,0,3,0.00
2013-12-24,55,38,28,35,26,20,78,65,46,30.50,30.41,3,0,4,0.00
2013-12-25,49,34,25,34,26,20,84,74,54,30.52,30.42,2,0,4,0.00
2013-12-26,48,33,23,31,24,17,82,70,51,30.48,30.39,2,0,3,0.00
2013-12-27,41,30,20,28,21,14,82,71,57,30.41,30.21,1,0,1,0.00
2013-12-28,49,30,18,28,18,-100,79,64,40,30.36,30.20,3,0,3,0.00
2013-12-29,46,31,20,28,20,14,81,66,47,30.40,30.31,2,0,2,0.00
2013-12-30,47,32,20,27,21,13,78,64,44,30.37,30.28,2,0,4,0.00
2013-12-31,56,38,28,29,22,17,72,56,31,30.33,30.25,3,0,5,0.00
2014-1-1,54,37,27,28,21,16,65,53,33,30.37,30.28,3,0,4,0.00
2014-1-2,53,37,26,29,23,18,73,59,37,30.33,30.21,3,0,4,0.00